createdAt,value
2024-01-19T00:00:00.738Z,920.00
2024-01-19T00:01:00.780Z,922.00
2024-01-19T00:02:00.718Z,923.00
2024-01-19T00:03:00.737Z,922.00
2024-01-19T00:04:00.810Z,920.00
2024-01-19T00:05:00.756Z,917.00
2024-01-19T00:06:00.804Z,917.00
2024-01-19T00:07:00.760Z,914.00
2024-01-19T00:08:00.803Z,916.00
2024-01-19T00:09:00.741Z,921.00
2024-01-19T00:10:00.748Z,925.00
2024-01-19T00:11:00.771Z,929.00
2024-01-19T00:12:00.763Z,927.00
2024-01-19T00:13:00.785Z,924.00
2024-01-19T00:14:00.738Z,920.00
2024-01-19T00:15:00.770Z,916.00
2024-01-19T00:16:00.785Z,915.00
2024-01-19T00:17:00.773Z,913.00
2024-01-19T00:18:00.905Z,913.00
2024-01-19T00:19:00.791Z,910.00
2024-01-19T00:20:00.792Z,908.00
2024-01-19T00:21:00.787Z,910.00
2024-01-19T00:22:00.760Z,920.00
2024-01-19T00:23:00.772Z,922.00
2024-01-19T00:24:00.767Z,923.00
2024-01-19T00:25:00.768Z,922.00
2024-01-19T00:26:00.778Z,919.00
2024-01-19T00:27:00.836Z,922.00
2024-01-19T00:28:00.781Z,924.00
2024-01-19T00:29:00.783Z,928.00
2024-01-19T00:30:00.841Z,926.00
2024-01-19T00:31:00.781Z,925.00
2024-01-19T00:32:00.787Z,926.00
2024-01-19T00:33:00.819Z,921.00
2024-01-19T00:34:00.766Z,921.00
2024-01-19T00:35:00.849Z,919.00
2024-01-19T00:36:00.850Z,922.00
2024-01-19T00:37:00.824Z,923.00
2024-01-19T00:38:00.799Z,923.00
2024-01-19T00:39:00.906Z,926.00
2024-01-19T00:40:00.950Z,929.00
2024-01-19T00:41:01.038Z,932.00
2024-01-19T00:42:01.118Z,932.00
2024-01-19T00:43:01.175Z,930.00
2024-01-19T00:44:01.214Z,929.00
2024-01-19T00:45:01.373Z,931.00
2024-01-19T00:46:01.360Z,930.00
2024-01-19T00:47:01.413Z,929.00
2024-01-19T00:48:01.615Z,927.00
2024-01-19T00:49:01.665Z,921.00
2024-01-19T00:50:01.693Z,919.00
2024-01-19T00:51:01.791Z,920.00
2024-01-19T00:52:01.747Z,921.00
2024-01-19T00:53:01.824Z,919.00
2024-01-19T00:54:01.909Z,914.00
2024-01-19T00:55:01.927Z,910.00
2024-01-19T00:56:01.992Z,904.00
2024-01-19T00:57:02.050Z,901.00
2024-01-19T00:58:02.146Z,902.00
2024-01-19T00:59:02.207Z,901.00
2024-01-19T01:00:02.345Z,899.00
2024-01-19T01:01:02.332Z,898.00
2024-01-19T01:02:02.372Z,897.00
2024-01-19T01:03:02.511Z,896.00
2024-01-19T01:04:02.527Z,897.00
2024-01-19T01:05:02.612Z,897.00
2024-01-19T01:06:02.800Z,898.00
2024-01-19T01:07:02.715Z,896.00
2024-01-19T01:08:02.752Z,899.00
2024-01-19T01:09:02.873Z,899.00
2024-01-19T01:10:02.929Z,901.00
2024-01-19T01:11:03.003Z,898.00
2024-01-19T01:12:03.035Z,894.00
2024-01-19T01:13:03.094Z,890.00
2024-01-19T01:14:03.186Z,888.00
2024-01-19T01:15:03.325Z,888.00
2024-01-19T01:16:03.347Z,890.00
2024-01-19T01:17:03.374Z,893.00
2024-01-19T01:18:03.542Z,894.00
2024-01-19T01:19:03.572Z,894.00
2024-01-19T01:20:03.605Z,893.00
2024-01-19T01:21:03.679Z,892.00
2024-01-19T01:22:03.750Z,891.00
2024-01-19T01:23:03.801Z,889.00
2024-01-19T01:24:03.937Z,889.00
2024-01-19T01:25:03.926Z,884.00
2024-01-19T01:26:04.050Z,878.00
2024-01-19T01:27:04.065Z,875.00
2024-01-19T01:28:04.150Z,871.00
2024-01-19T01:29:04.188Z,869.00
2024-01-19T01:30:04.281Z,869.00
2024-01-19T01:31:04.320Z,871.00
2024-01-19T01:32:04.391Z,874.00
2024-01-19T01:33:04.612Z,872.00
2024-01-19T01:34:04.587Z,872.00
2024-01-19T01:35:04.620Z,870.00
2024-01-19T01:36:04.768Z,869.00
2024-01-19T01:37:04.750Z,869.00
2024-01-19T01:38:04.817Z,872.00
2024-01-19T01:39:04.884Z,872.00
2024-01-19T01:40:04.979Z,871.00
2024-01-19T01:41:05.061Z,869.00
2024-01-19T01:42:05.095Z,870.00
2024-01-19T01:43:05.206Z,874.00
2024-01-19T01:44:05.247Z,876.00
2024-01-19T01:45:05.405Z,877.00
2024-01-19T01:46:05.393Z,879.00
2024-01-19T01:47:05.491Z,876.00
2024-01-19T01:48:05.733Z,873.00
2024-01-19T01:49:05.736Z,874.00
2024-01-19T01:50:05.688Z,870.00
2024-01-19T01:51:05.866Z,867.00
2024-01-19T01:52:05.832Z,867.00
2024-01-19T01:53:05.905Z,863.00
2024-01-19T01:54:06.018Z,862.00
2024-01-19T01:55:06.043Z,859.00
2024-01-19T01:56:06.127Z,860.00
2024-01-19T01:57:06.187Z,860.00
2024-01-19T01:58:06.261Z,861.00
2024-01-19T01:59:06.341Z,861.00
2024-01-19T02:00:06.384Z,861.00
2024-01-19T02:01:06.502Z,855.00
2024-01-19T02:02:06.534Z,857.00
2024-01-19T02:03:06.592Z,863.00
2024-01-19T02:04:06.653Z,861.00
2024-01-19T02:05:06.788Z,858.00
2024-01-19T02:06:06.904Z,856.00
2024-01-19T02:07:07.120Z,856.00
2024-01-19T02:08:07.058Z,852.00
2024-01-19T02:09:07.035Z,849.00
2024-01-19T02:10:07.084Z,850.00
2024-01-19T02:11:07.163Z,853.00
2024-01-19T02:12:07.230Z,855.00
2024-01-19T02:13:07.295Z,854.00
2024-01-19T02:14:07.392Z,851.00
2024-01-19T02:15:07.457Z,850.00
2024-01-19T02:16:07.558Z,849.00
2024-01-19T02:17:07.597Z,847.00
2024-01-19T02:18:07.797Z,848.00
2024-01-19T02:19:07.807Z,846.00
2024-01-19T02:20:07.790Z,843.00
2024-01-19T02:21:07.866Z,839.00
2024-01-19T02:22:07.945Z,836.00
2024-01-19T02:23:08.031Z,838.00
2024-01-19T02:24:08.090Z,839.00
2024-01-19T02:25:08.167Z,842.00
2024-01-19T02:26:08.272Z,848.00
2024-01-19T02:27:08.300Z,850.00
2024-01-19T02:28:08.364Z,848.00
2024-01-19T02:29:09.001Z,846.00
2024-01-19T02:30:08.506Z,844.00
2024-01-19T02:31:08.626Z,839.00
2024-01-19T02:32:08.690Z,836.00
2024-01-19T02:33:08.781Z,841.00
2024-01-19T02:34:08.792Z,848.00
2024-01-19T02:35:08.904Z,846.00
2024-01-19T02:36:08.961Z,849.00
2024-01-19T02:37:09.032Z,853.00
2024-01-19T02:38:09.068Z,850.00
2024-01-19T02:39:09.134Z,852.00
2024-01-19T02:40:09.235Z,847.00
2024-01-19T02:41:09.279Z,843.00
2024-01-19T02:42:09.377Z,838.00
2024-01-19T02:43:09.457Z,835.00
2024-01-19T02:44:09.481Z,831.00
2024-01-19T02:45:09.580Z,834.00
2024-01-19T02:46:09.651Z,838.00
2024-01-19T02:47:09.713Z,838.00
2024-01-19T02:48:09.812Z,838.00
2024-01-19T02:49:09.933Z,837.00
2024-01-19T02:50:09.927Z,837.00
2024-01-19T02:51:09.984Z,839.00
2024-01-19T02:52:10.018Z,840.00
2024-01-19T02:53:10.063Z,841.00
2024-01-19T02:54:10.118Z,838.00
2024-01-19T02:55:10.209Z,836.00
2024-01-19T02:56:10.258Z,835.00
2024-01-19T02:57:10.313Z,828.00
2024-01-19T02:58:10.380Z,821.00
2024-01-19T02:59:10.448Z,817.00
2024-01-19T03:00:10.497Z,818.00
2024-01-19T03:01:10.622Z,817.00
2024-01-19T03:02:10.722Z,817.00
2024-01-19T03:03:10.775Z,822.00
2024-01-19T03:04:10.765Z,821.00
2024-01-19T03:05:10.840Z,819.00
2024-01-19T03:06:11.057Z,817.00
2024-01-19T03:07:10.898Z,816.00
2024-01-19T03:08:10.920Z,820.00
2024-01-19T03:09:10.962Z,821.00
2024-01-19T03:10:11.016Z,816.00
2024-01-19T03:11:11.088Z,815.00
2024-01-19T03:12:11.117Z,810.00
2024-01-19T03:13:11.187Z,808.00
2024-01-19T03:14:11.276Z,806.00
2024-01-19T03:15:11.324Z,799.00
2024-01-19T03:16:11.383Z,796.00
2024-01-19T03:17:11.453Z,795.00
2024-01-19T03:18:11.672Z,797.00
2024-01-19T03:19:11.611Z,796.00
2024-01-19T03:20:11.620Z,795.00
2024-01-19T03:21:11.628Z,794.00
2024-01-19T03:22:11.723Z,793.00
2024-01-19T03:23:11.729Z,796.00
2024-01-19T03:24:11.824Z,797.00
2024-01-19T03:25:11.906Z,797.00
2024-01-19T03:26:11.981Z,798.00
2024-01-19T03:27:11.997Z,796.00
2024-01-19T03:28:12.039Z,796.00
2024-01-19T03:29:12.069Z,798.00
2024-01-19T03:30:12.112Z,798.00
2024-01-19T03:31:12.165Z,794.00
2024-01-19T03:32:12.186Z,792.00
2024-01-19T03:33:12.349Z,794.00
2024-01-19T03:34:12.359Z,795.00
2024-01-19T03:35:12.349Z,798.00
2024-01-19T03:36:12.507Z,799.00
2024-01-19T03:37:12.465Z,800.00
2024-01-19T03:38:12.519Z,803.00
2024-01-19T03:39:12.559Z,802.00
2024-01-19T03:40:12.620Z,802.00
2024-01-19T03:41:12.679Z,800.00
2024-01-19T03:42:12.731Z,801.00
2024-01-19T03:43:12.824Z,806.00
2024-01-19T03:44:12.856Z,806.00
2024-01-19T03:45:12.932Z,809.00
2024-01-19T03:46:13.004Z,809.00
2024-01-19T03:47:13.051Z,812.00
2024-01-19T03:48:13.141Z,811.00
2024-01-19T03:49:13.138Z,812.00
2024-01-19T03:50:13.222Z,812.00
2024-01-19T03:51:13.269Z,810.00
2024-01-19T03:52:13.337Z,806.00
2024-01-19T03:53:13.418Z,804.00
2024-01-19T03:54:13.466Z,808.00
2024-01-19T03:55:14.133Z,808.00
2024-01-19T03:56:13.608Z,807.00
2024-01-19T03:57:13.663Z,807.00
2024-01-19T03:58:13.713Z,808.00
2024-01-19T03:59:13.724Z,807.00
2024-01-19T04:00:13.833Z,803.00
2024-01-19T04:01:13.912Z,799.00
2024-01-19T04:02:13.956Z,800.00
2024-01-19T04:03:14.144Z,801.00
2024-01-19T04:04:14.073Z,799.00
2024-01-19T04:05:14.083Z,799.00
2024-01-19T04:06:14.266Z,796.00
2024-01-19T04:07:14.277Z,795.00
2024-01-19T04:08:14.186Z,793.00
2024-01-19T04:09:14.212Z,792.00
2024-01-19T04:10:14.251Z,792.00
2024-01-19T04:11:14.324Z,793.00
2024-01-19T04:12:14.320Z,792.00
2024-01-19T04:13:14.380Z,790.00
2024-01-19T04:14:14.423Z,786.00
2024-01-19T04:15:14.451Z,784.00
2024-01-19T04:16:14.524Z,782.00
2024-01-19T04:17:14.516Z,782.00
2024-01-19T04:18:14.731Z,782.00
2024-01-19T04:19:14.700Z,778.00
2024-01-19T04:20:14.663Z,776.00
2024-01-19T04:21:14.686Z,778.00
2024-01-19T04:22:14.753Z,776.00
2024-01-19T04:23:14.817Z,775.00
2024-01-19T04:24:14.850Z,772.00
2024-01-19T04:25:14.974Z,770.00
2024-01-19T04:26:14.988Z,767.00
2024-01-19T04:27:15.064Z,766.00
2024-01-19T04:28:15.092Z,768.00
2024-01-19T04:29:15.172Z,768.00
2024-01-19T04:30:15.232Z,767.00
2024-01-19T04:31:15.263Z,768.00
2024-01-19T04:32:15.298Z,773.00
2024-01-19T04:33:15.466Z,771.00
2024-01-19T04:34:22.738Z,777.00
2024-01-19T04:35:22.758Z,775.00
2024-01-19T04:36:22.708Z,777.00
2024-01-19T04:37:22.738Z,778.00
2024-01-19T04:38:22.738Z,779.00
2024-01-19T04:39:22.744Z,779.00
2024-01-19T04:40:22.719Z,778.00
2024-01-19T04:41:22.758Z,776.00
2024-01-19T04:42:22.738Z,774.00
2024-01-19T04:43:22.728Z,771.00
2024-01-19T04:44:22.802Z,772.00
2024-01-19T04:45:22.746Z,771.00
2024-01-19T04:46:22.735Z,770.00
2024-01-19T04:47:22.917Z,770.00
2024-01-19T04:48:22.810Z,770.00
2024-01-19T04:49:22.751Z,771.00
2024-01-19T04:50:22.774Z,773.00
2024-01-19T04:51:22.757Z,774.00
2024-01-19T04:52:22.710Z,773.00
2024-01-19T04:53:22.756Z,775.00
2024-01-19T04:54:22.730Z,774.00
2024-01-19T04:55:22.765Z,773.00
2024-01-19T04:56:22.751Z,774.00
2024-01-19T04:57:22.754Z,774.00
2024-01-19T04:58:22.735Z,772.00
2024-01-19T04:59:22.788Z,770.00
2024-01-19T05:00:22.760Z,770.00
2024-01-19T05:01:22.762Z,764.00
2024-01-19T05:02:22.763Z,763.00
2024-01-19T05:03:22.766Z,763.00
2024-01-19T05:04:22.806Z,764.00
2024-01-19T05:05:22.933Z,758.00
2024-01-19T05:06:22.984Z,754.00
2024-01-19T05:07:22.982Z,751.00
2024-01-19T05:08:23.131Z,750.00
2024-01-19T05:09:23.130Z,746.00
2024-01-19T05:10:23.173Z,747.00
2024-01-19T05:11:23.260Z,750.00
2024-01-19T05:12:23.256Z,754.00
2024-01-19T05:13:23.373Z,755.00
2024-01-19T05:14:23.467Z,756.00
2024-01-19T05:15:23.830Z,753.00
2024-01-19T05:16:23.593Z,755.00
2024-01-19T05:17:23.693Z,751.00
2024-01-19T05:18:23.777Z,745.00
2024-01-19T05:19:23.792Z,744.00
2024-01-19T05:20:23.863Z,740.00
2024-01-19T05:21:23.908Z,741.00
2024-01-19T05:22:23.968Z,743.00
2024-01-19T05:23:24.071Z,747.00
2024-01-19T05:24:24.122Z,746.00
2024-01-19T05:25:24.190Z,742.00
2024-01-19T05:26:24.253Z,740.00
2024-01-19T05:27:24.289Z,738.00
2024-01-19T05:28:24.363Z,740.00
2024-01-19T05:29:24.437Z,738.00
2024-01-19T05:30:24.484Z,738.00
2024-01-19T05:31:24.613Z,740.00
2024-01-19T05:32:24.746Z,740.00
2024-01-19T05:33:24.823Z,739.00
2024-01-19T05:34:24.864Z,736.00
2024-01-19T05:35:25.014Z,736.00
2024-01-19T05:36:24.953Z,737.00
2024-01-19T05:37:24.991Z,735.00
2024-01-19T05:38:25.073Z,737.00
2024-01-19T05:39:25.146Z,738.00
2024-01-19T05:40:25.177Z,737.00
2024-01-19T05:41:25.322Z,739.00
2024-01-19T05:42:25.266Z,741.00
2024-01-19T05:43:25.349Z,741.00
2024-01-19T05:44:25.367Z,742.00
2024-01-19T05:45:25.415Z,744.00
2024-01-19T05:46:25.490Z,746.00
2024-01-19T05:47:25.848Z,748.00
2024-01-19T05:48:25.795Z,749.00
2024-01-19T05:49:25.698Z,751.00
2024-01-19T05:50:25.758Z,750.00
2024-01-19T05:51:25.821Z,748.00
2024-01-19T05:52:25.832Z,750.00
2024-01-19T05:53:25.989Z,753.00
2024-01-19T05:54:25.976Z,751.00
2024-01-19T05:55:25.975Z,752.00
2024-01-19T05:56:26.089Z,752.00
2024-01-19T05:57:26.146Z,751.00
2024-01-19T05:58:26.160Z,751.00
2024-01-19T05:59:26.277Z,751.00
2024-01-19T06:00:26.305Z,750.00
2024-01-19T06:01:26.340Z,748.00
2024-01-19T06:02:26.508Z,749.00
2024-01-19T06:03:26.471Z,747.00
2024-01-19T06:04:26.506Z,748.00
2024-01-19T06:05:26.680Z,748.00
2024-01-19T06:06:26.776Z,749.00
2024-01-19T06:07:26.752Z,748.00
2024-01-19T06:08:26.843Z,751.00
2024-01-19T06:09:26.846Z,751.00
2024-01-19T06:10:26.950Z,751.00
2024-01-19T06:11:27.036Z,748.00
2024-01-19T06:12:27.057Z,749.00
2024-01-19T06:13:27.136Z,749.00
2024-01-19T06:14:27.221Z,751.00
2024-01-19T06:15:27.294Z,755.00
2024-01-19T06:16:27.330Z,754.00
2024-01-19T06:17:27.482Z,753.00
2024-01-19T06:18:27.620Z,753.00
2024-01-19T06:19:27.585Z,755.00
2024-01-19T06:20:27.689Z,755.00
2024-01-19T06:21:27.720Z,754.00
2024-01-19T06:22:27.781Z,751.00
2024-01-19T06:23:27.868Z,750.00
2024-01-19T06:24:27.918Z,749.00
2024-01-19T06:25:27.969Z,748.00
2024-01-19T06:26:28.072Z,748.00
2024-01-19T06:27:28.122Z,749.00
2024-01-19T06:28:28.208Z,750.00
2024-01-19T06:29:28.291Z,748.00
2024-01-19T06:30:28.366Z,747.00
2024-01-19T06:31:28.409Z,745.00
2024-01-19T06:32:28.609Z,746.00
2024-01-19T06:33:28.758Z,745.00
2024-01-19T06:34:28.612Z,745.00
2024-01-19T06:35:28.770Z,746.00
2024-01-19T06:36:28.942Z,747.00
2024-01-19T06:37:28.851Z,747.00
2024-01-19T06:38:28.933Z,748.00
2024-01-19T06:39:29.006Z,748.00
2024-01-19T06:40:29.070Z,749.00
2024-01-19T06:41:29.191Z,751.00
2024-01-19T06:42:29.225Z,757.00
2024-01-19T06:43:29.303Z,782.00
2024-01-19T06:44:29.353Z,806.00
2024-01-19T06:45:29.433Z,813.00
2024-01-19T06:46:29.488Z,818.00
2024-01-19T06:47:29.610Z,818.00
2024-01-19T06:48:29.672Z,821.00
2024-01-19T06:49:29.719Z,823.00
2024-01-19T06:50:29.782Z,822.00
2024-01-19T06:51:29.899Z,828.00
2024-01-19T06:52:29.923Z,841.00
2024-01-19T06:53:30.064Z,863.00
2024-01-19T06:54:30.073Z,888.00
2024-01-19T06:55:30.112Z,936.00
2024-01-19T06:56:30.199Z,949.00
2024-01-19T06:57:30.237Z,963.00
2024-01-19T06:58:30.308Z,1005.00
2024-01-19T06:59:30.378Z,1029.00
2024-01-19T07:00:30.396Z,1118.00
2024-01-19T07:01:30.505Z,1174.00
2024-01-19T07:02:30.533Z,1157.00
2024-01-19T07:03:30.595Z,1174.00
2024-01-19T07:04:30.590Z,1202.00
2024-01-19T07:05:30.637Z,1227.00
2024-01-19T07:06:30.660Z,1242.00
2024-01-19T07:07:30.634Z,1251.00
2024-01-19T07:08:30.675Z,1270.00
2024-01-19T07:09:30.665Z,1298.00
2024-01-19T07:10:30.667Z,1317.00
2024-01-19T07:11:30.760Z,1336.00
2024-01-19T07:12:30.695Z,1389.00
2024-01-19T07:13:30.724Z,1409.00
2024-01-19T07:14:30.728Z,1413.00
2024-01-19T07:15:30.702Z,1421.00
2024-01-19T07:16:30.772Z,1434.00
2024-01-19T07:17:30.886Z,1446.00
2024-01-19T07:18:30.949Z,1457.00
2024-01-19T07:19:30.893Z,1470.00
2024-01-19T07:20:30.983Z,1488.00
2024-01-19T07:21:31.050Z,1505.00
2024-01-19T07:22:31.107Z,1521.00
2024-01-19T07:23:31.982Z,1537.00
2024-01-19T07:24:31.268Z,1550.00
2024-01-19T07:25:31.308Z,1562.00
2024-01-19T07:26:31.414Z,1581.00
2024-01-19T07:27:31.432Z,1595.00
2024-01-19T07:28:31.499Z,1604.00
2024-01-19T07:29:31.654Z,1608.00
2024-01-19T07:30:31.619Z,1609.00
2024-01-19T07:31:31.712Z,1610.00
2024-01-19T07:33:33.364Z,1625.00
2024-01-19T07:34:32.020Z,1644.00
2024-01-19T07:35:32.032Z,1675.00
2024-01-19T07:36:32.016Z,1693.00
2024-01-19T07:37:32.017Z,1705.00
2024-01-19T07:38:32.094Z,1723.00
2024-01-19T07:39:32.094Z,1748.00
2024-01-19T07:40:32.130Z,1755.00
2024-01-19T07:41:32.201Z,1774.00
2024-01-19T07:42:32.196Z,1781.00
2024-01-19T07:43:32.242Z,1786.00
2024-01-19T07:44:32.350Z,1802.00
2024-01-19T07:45:32.314Z,1825.00
2024-01-19T07:46:32.391Z,1838.00
2024-01-19T07:47:32.456Z,1838.00
2024-01-19T07:48:32.492Z,1848.00
2024-01-19T07:49:32.519Z,1973.00
2024-01-19T07:50:32.504Z,1953.00
2024-01-19T07:51:32.548Z,1947.00
2024-01-19T07:52:32.576Z,1941.00
2024-01-19T07:53:32.622Z,1952.00
2024-01-19T07:54:32.632Z,1968.00
2024-01-19T07:55:32.650Z,1977.00
2024-01-19T07:56:32.674Z,1989.00
2024-01-19T07:57:32.677Z,2150.00
2024-01-19T07:58:32.747Z,2236.00
2024-01-19T07:59:32.756Z,2166.00
2024-01-19T08:00:32.766Z,2170.00
2024-01-19T08:01:32.765Z,2204.00
2024-01-19T08:02:32.803Z,2245.00
2024-01-19T08:03:32.845Z,2249.00
2024-01-19T08:04:32.807Z,2258.00
2024-01-19T08:05:32.880Z,2267.00
2024-01-19T08:06:32.905Z,2257.00
2024-01-19T08:07:32.845Z,2258.00
2024-01-19T08:08:32.905Z,2255.00
2024-01-19T08:09:32.865Z,2259.00
2024-01-19T08:10:32.916Z,2392.00
2024-01-19T08:11:32.969Z,2336.00
2024-01-19T08:12:32.924Z,2460.00
2024-01-19T08:13:32.933Z,2416.00
2024-01-19T08:14:33.008Z,2555.00
2024-01-19T08:15:32.978Z,2470.00
2024-01-19T08:16:33.021Z,2482.00
2024-01-19T08:17:33.098Z,2470.00
2024-01-19T08:18:34.930Z,2453.00
2024-01-19T08:19:33.105Z,2453.00
2024-01-19T08:20:33.152Z,2891.00
2024-01-19T08:21:33.105Z,2826.00
2024-01-19T08:22:33.120Z,2754.00
2024-01-19T08:23:33.166Z,2607.00
2024-01-19T08:24:33.113Z,2557.00
2024-01-19T08:25:33.128Z,2577.00
2024-01-19T08:26:33.144Z,2678.00
2024-01-19T08:27:33.154Z,2682.00
2024-01-19T08:28:33.104Z,2685.00
2024-01-19T08:29:33.124Z,2696.00
2024-01-19T08:30:33.135Z,2697.00
2024-01-19T08:31:33.154Z,2694.00
2024-01-19T08:32:33.458Z,2696.00
2024-01-19T08:33:33.254Z,2703.00
2024-01-19T08:34:33.168Z,2714.00
2024-01-19T08:35:33.249Z,2774.00
2024-01-19T08:36:33.141Z,2771.00
2024-01-19T08:37:33.135Z,2812.00
2024-01-19T08:38:33.185Z,2889.00
2024-01-19T08:39:33.166Z,2896.00
2024-01-19T08:40:33.116Z,2902.00
2024-01-19T08:41:33.181Z,2894.00
2024-01-19T08:42:33.146Z,2859.00
2024-01-19T08:43:33.152Z,2751.00
2024-01-19T08:44:33.175Z,2764.00
2024-01-19T08:45:33.198Z,2779.00
2024-01-19T08:46:33.144Z,2579.00
2024-01-19T08:47:33.238Z,2600.00
2024-01-19T08:48:33.260Z,2676.00
2024-01-19T08:49:33.181Z,2684.00
2024-01-19T08:50:33.164Z,3069.00
2024-01-19T08:51:33.187Z,2837.00
2024-01-19T08:52:33.193Z,2764.00
2024-01-19T08:53:33.263Z,2607.00
2024-01-19T08:54:33.255Z,1690.00
2024-01-19T08:55:33.267Z,1550.00
2024-01-19T08:56:34.062Z,1381.00
2024-01-19T08:57:33.405Z,1334.00
2024-01-19T08:58:33.272Z,1311.00
2024-01-19T08:59:33.458Z,1282.00
2024-01-19T09:00:33.317Z,1163.00
2024-01-19T09:01:33.288Z,1136.00
2024-01-19T09:02:33.302Z,1125.00
2024-01-19T09:03:33.378Z,1122.00
2024-01-19T09:04:33.357Z,1117.00
2024-01-19T09:05:33.784Z,1107.00
2024-01-19T09:06:34.177Z,1087.00
2024-01-19T09:07:33.716Z,1666.00
2024-01-19T09:08:33.331Z,1695.00
2024-01-19T09:09:33.302Z,1799.00
2024-01-19T09:10:33.276Z,1845.00
2024-01-19T09:11:33.367Z,1882.00
2024-01-19T09:12:33.284Z,1967.00
2024-01-19T09:13:33.285Z,1833.00
2024-01-19T09:14:33.317Z,1816.00
2024-01-19T09:15:33.292Z,1801.00
2024-01-19T09:16:33.306Z,1788.00
2024-01-19T09:17:33.408Z,1781.00
2024-01-19T09:18:33.415Z,1780.00
2024-01-19T09:19:34.810Z,1789.00
2024-01-19T09:20:33.369Z,1792.00
2024-01-19T09:21:33.350Z,1795.00
2024-01-19T09:22:33.326Z,1801.00
2024-01-19T09:23:33.325Z,1805.00
2024-01-19T09:24:33.345Z,1808.00
2024-01-19T09:25:33.320Z,1815.00
2024-01-19T09:26:33.403Z,1828.00
2024-01-19T09:27:33.345Z,1849.00
2024-01-19T09:28:33.345Z,1877.00
2024-01-19T09:29:33.440Z,1887.00
2024-01-19T09:30:34.878Z,1891.00
2024-01-19T09:31:33.471Z,1904.00
2024-01-19T09:32:33.476Z,1909.00
2024-01-19T09:33:33.517Z,1938.00
2024-01-19T09:34:33.435Z,1938.00
2024-01-19T09:35:33.418Z,1905.00
2024-01-19T09:36:33.362Z,1948.00
2024-01-19T09:37:33.394Z,1954.00
2024-01-19T09:38:33.454Z,2039.00
2024-01-19T09:39:33.413Z,2008.00
2024-01-19T09:40:33.424Z,1998.00
2024-01-19T09:41:33.492Z,2000.00
2024-01-19T09:42:33.402Z,2005.00
2024-01-19T09:43:33.413Z,2016.00
2024-01-19T09:44:33.416Z,2104.00
2024-01-19T09:45:33.408Z,2097.00
2024-01-19T09:46:33.453Z,2092.00
2024-01-19T09:47:33.443Z,2102.00
2024-01-19T09:48:33.478Z,2117.00
2024-01-19T09:49:33.565Z,2133.00
2024-01-19T09:50:33.503Z,2144.00
2024-01-19T09:51:33.430Z,2138.00
2024-01-19T09:52:33.430Z,2134.00
2024-01-19T09:53:33.663Z,2361.00
2024-01-19T09:54:33.427Z,2432.00
2024-01-19T09:55:33.426Z,2592.00
2024-01-19T09:56:33.464Z,2477.00
2024-01-19T09:57:33.422Z,2706.00
2024-01-19T09:58:33.438Z,2562.00
2024-01-19T09:59:33.482Z,2521.00
2024-01-19T10:00:33.436Z,2519.00
2024-01-19T10:01:33.429Z,2762.00
2024-01-19T10:02:33.469Z,2717.00
2024-01-19T10:03:33.500Z,2876.00
2024-01-19T10:04:33.519Z,2925.00
2024-01-19T10:05:33.521Z,2677.00
2024-01-19T10:06:33.529Z,2647.00
2024-01-19T10:07:33.440Z,2689.00
2024-01-19T10:08:33.481Z,2675.00
2024-01-19T10:09:33.485Z,2779.00
2024-01-19T10:10:33.954Z,2660.00
2024-01-19T10:12:33.443Z,2874.00
2024-01-19T10:13:33.461Z,2817.00
2024-01-19T10:14:33.475Z,2785.00
2024-01-19T10:15:33.468Z,2787.00
2024-01-19T10:16:33.475Z,2838.00
2024-01-19T10:17:33.581Z,2820.00
2024-01-19T10:18:33.653Z,2847.00
2024-01-19T10:19:33.438Z,2806.00
2024-01-19T10:20:33.460Z,2791.00
2024-01-19T10:21:33.466Z,2895.00
2024-01-19T10:22:33.469Z,2819.00
2024-01-19T10:23:33.531Z,2893.00
2024-01-19T10:24:33.478Z,2855.00
2024-01-19T10:25:33.490Z,2830.00
2024-01-19T10:26:33.499Z,3013.00
2024-01-19T10:27:33.452Z,3111.00
2024-01-19T10:28:33.474Z,2992.00
2024-01-19T10:29:33.506Z,2961.00
2024-01-19T10:30:33.504Z,2956.00
2024-01-19T10:31:33.501Z,2944.00
2024-01-19T10:32:33.536Z,2965.00
2024-01-19T10:33:33.559Z,2945.00
2024-01-19T10:34:33.518Z,3009.00
2024-01-19T10:35:34.060Z,2963.00
2024-01-19T10:36:33.523Z,3209.00
2024-01-19T10:37:33.503Z,3043.00
2024-01-19T10:38:33.532Z,3501.00
2024-01-19T10:39:33.498Z,3309.00
2024-01-19T10:40:33.489Z,3080.00
2024-01-19T10:41:33.518Z,2848.00
2024-01-19T10:42:33.496Z,2862.00
2024-01-19T10:43:33.490Z,2857.00
2024-01-19T10:44:33.555Z,2784.00
2024-01-19T10:45:33.517Z,2836.00
2024-01-19T10:46:33.508Z,2817.00
2024-01-19T10:47:33.579Z,2983.00
2024-01-19T10:48:33.645Z,2544.00
2024-01-19T10:49:33.580Z,2540.00
2024-01-19T10:50:33.738Z,2657.00
2024-01-19T10:51:33.519Z,2670.00
2024-01-19T10:52:33.518Z,2753.00
2024-01-19T10:53:33.543Z,2741.00
2024-01-19T10:54:33.555Z,2735.00
2024-01-19T10:55:33.529Z,2753.00
2024-01-19T10:56:33.608Z,2783.00
2024-01-19T10:57:33.576Z,2816.00
2024-01-19T10:58:33.520Z,2834.00
2024-01-19T10:59:33.635Z,2847.00
2024-01-19T11:00:33.558Z,2938.00
2024-01-19T11:01:33.650Z,2912.00
2024-01-19T11:02:33.631Z,2917.00
2024-01-19T11:03:33.669Z,2954.00
2024-01-19T11:04:33.652Z,2928.00
2024-01-19T11:05:33.842Z,2924.00
2024-01-19T11:06:33.747Z,2916.00
2024-01-19T11:07:33.737Z,2915.00
2024-01-19T11:08:33.746Z,2920.00
2024-01-19T11:09:33.730Z,2935.00
2024-01-19T11:10:34.034Z,2947.00
2024-01-19T11:11:33.783Z,2953.00
2024-01-19T11:12:33.766Z,3041.00
2024-01-19T11:13:33.766Z,3038.00
2024-01-19T11:14:33.764Z,3029.00
2024-01-19T11:15:33.806Z,3119.00
2024-01-19T11:16:34.463Z,3100.00
2024-01-19T11:17:33.784Z,3506.00
2024-01-19T11:18:33.853Z,3110.00
2024-01-19T11:19:33.906Z,3072.00
2024-01-19T11:20:33.804Z,3047.00
2024-01-19T11:21:33.819Z,3054.00
2024-01-19T11:22:33.815Z,3051.00
2024-01-19T11:23:33.853Z,3059.00
2024-01-19T11:24:33.841Z,3057.00
2024-01-19T11:25:33.855Z,3049.00
2024-01-19T11:26:33.885Z,3046.00
2024-01-19T11:27:33.834Z,3048.00
2024-01-19T11:28:33.839Z,3081.00
2024-01-19T11:29:33.960Z,3125.00
2024-01-19T11:30:33.860Z,3214.00
2024-01-19T11:31:33.924Z,3181.00
2024-01-19T11:32:33.986Z,3063.00
2024-01-19T11:33:34.263Z,3039.00
2024-01-19T11:34:33.878Z,3049.00
2024-01-19T11:35:33.928Z,3067.00
2024-01-19T11:36:33.917Z,3144.00
2024-01-19T11:37:33.911Z,2966.00
2024-01-19T11:38:34.009Z,2964.00
2024-01-19T11:39:35.309Z,3007.00
2024-01-19T11:40:33.956Z,3001.00
2024-01-19T11:41:34.044Z,2992.00
2024-01-19T11:42:33.993Z,2985.00
2024-01-19T11:43:34.024Z,2776.00
2024-01-19T11:44:34.052Z,2682.00
2024-01-19T11:45:34.048Z,2370.00
2024-01-19T11:46:34.076Z,2140.00
2024-01-19T11:47:34.264Z,2050.00
2024-01-19T11:48:34.361Z,1972.00
2024-01-19T11:49:34.336Z,1866.00
2024-01-19T11:50:34.337Z,1851.00
2024-01-19T11:51:34.395Z,1846.00
2024-01-19T11:52:34.489Z,1841.00
2024-01-19T11:53:34.524Z,1885.00
2024-01-19T11:54:34.651Z,1933.00
2024-01-19T11:55:34.660Z,1992.00
2024-01-19T11:56:34.729Z,2140.00
2024-01-19T11:57:34.786Z,2254.00
2024-01-19T11:58:34.837Z,2261.00
2024-01-19T11:59:34.995Z,2264.00
2024-01-19T12:00:34.972Z,2262.00
2024-01-19T12:01:35.094Z,2259.00
2024-01-19T12:02:35.313Z,2252.00
2024-01-19T12:03:35.219Z,2251.00
2024-01-19T12:04:35.265Z,2250.00
2024-01-19T12:05:35.389Z,2247.00
2024-01-19T12:06:35.533Z,2244.00
2024-01-19T12:07:35.509Z,2246.00
2024-01-19T12:08:35.608Z,2239.00
2024-01-19T12:09:35.613Z,2244.00
2024-01-19T12:10:35.644Z,2251.00
2024-01-19T12:11:35.798Z,2256.00
2024-01-19T12:12:35.812Z,2257.00
2024-01-19T12:13:35.887Z,2257.00
2024-01-19T12:14:35.980Z,2255.00
2024-01-19T12:15:36.042Z,2253.00
2024-01-19T12:16:36.066Z,2254.00
2024-01-19T12:17:36.208Z,2257.00
2024-01-19T12:18:36.261Z,2262.00
2024-01-19T12:19:36.268Z,2261.00
2024-01-19T12:20:36.344Z,2258.00